Time;durP1;ratioP1;P1;durP2;ratioP2;P2;SDS_P1;SDS_P2;PMS_P1;PMS_P2;Temp;Humidity;BMP_temperature;BMP_pressure;BME280_temperature;BME280_humidity;BME280_pressure;Samples;Min_cycle;Max_cycle;Signal;HPM_P1;HPM_P2
2024/04/19 00:00:49;;;;;;;3.42;1.00;;;;;;;18.77;40.48;101433.63;5400408;26;19996;-68
2024/04/19 00:03:14;;;;;;;3.25;0.90;;;;;;;18.76;40.77;101423.19;5397980;26;20007;-67
2024/04/19 00:05:40;;;;;;;2.60;0.80;;;;;;;18.68;40.60;101413.19;5401618;26;19999;-68
2024/04/19 00:08:06;;;;;;;3.80;0.90;;;;;;;18.72;40.80;101417.25;5400517;26;20069;-68
2024/04/19 00:10:34;;;;;;;3.08;1.15;;;;;;;18.73;40.72;101416.31;5401049;26;19999;-69
2024/04/19 00:13:00;;;;;;;3.25;1.13;;;;;;;18.70;40.94;101402.50;5400342;26;19999;-70
2024/04/19 00:15:25;;;;;;;2.08;0.75;;;;;;;18.60;40.91;101381.25;5400824;26;20030;-68
2024/04/19 00:17:50;;;;;;;1.75;0.95;;;;;;;18.68;40.91;101394.69;5400793;26;19999;-69
2024/04/19 00:20:17;;;;;;;2.25;1.00;;;;;;;18.56;40.85;101375.31;5397719;26;19996;-68
2024/04/19 00:22:42;;;;;;;3.25;0.90;;;;;;;18.66;41.03;101381.63;5399784;26;19998;-68
2024/04/19 00:25:07;;;;;;;3.08;0.93;;;;;;;18.62;40.79;101366.94;5400806;26;20031;-68
2024/04/19 00:27:33;;;;;;;3.03;0.85;;;;;;;18.52;41.15;101351.91;5400089;26;19996;-68
2024/04/19 00:29:58;;;;;;;2.78;0.82;;;;;;;18.59;40.94;101355.78;5400839;26;20006;-69
2024/04/19 00:32:23;;;;;;;2.92;0.90;;;;;;;18.64;40.88;101369.47;5400881;26;20425;-68
2024/04/19 00:34:49;;;;;;;2.53;1.10;;;;;;;18.68;41.06;101371.78;5398133;26;19996;-70
2024/04/19 00:37:14;;;;;;;2.40;0.80;;;;;;;18.62;40.89;101366.94;5401229;26;20014;-68
2024/04/19 00:39:39;;;;;;;3.67;1.35;;;;;;;18.65;41.07;101366.72;5400745;26;20330;-70
2024/04/19 00:42:05;;;;;;;3.40;0.90;;;;;;;18.64;40.91;101361.56;5399894;26;20032;-68
2024/04/19 00:44:31;;;;;;;1.42;0.68;;;;;;;18.63;40.90;101352.81;5400708;26;19999;-68
2024/04/19 00:46:57;;;;;;;2.58;0.90;;;;;;;18.46;41.11;101321.56;5400620;26;20345;-68
2024/04/19 00:49:23;;;;;;;1.98;0.88;;;;;;;18.58;41.15;101339.13;5399936;26;19996;-69
2024/04/19 00:51:48;;;;;;;2.35;0.98;;;;;;;18.58;41.17;101336.47;5400525;26;20008;-68
2024/04/19 00:54:15;;;;;;;3.33;0.95;;;;;;;18.63;41.46;101346.69;5399748;26;20530;-69
2024/04/19 00:56:42;;;;;;;1.55;0.80;;;;;;;18.55;41.21;101328.78;5397972;26;20077;-68
2024/04/19 00:59:08;;;;;;;1.58;0.80;;;;;;;18.57;41.20;101321.59;5400594;26;19996;-69
2024/04/19 01:01:34;;;;;;;4.72;1.02;;;;;;;18.62;41.26;101331.81;5400064;26;20007;-68
2024/04/19 01:03:59;;;;;;;2.88;0.98;;;;;;;18.60;41.20;101324.00;5396615;26;21117;-68
2024/04/19 01:06:25;;;;;;;1.83;0.90;;;;;;;18.55;41.12;101310.31;5400195;26;20069;-68
2024/04/19 01:08:50;;;;;;;2.67;0.93;;;;;;;18.59;41.38;101319.66;5400487;26;20000;-68
2024/04/19 01:11:16;;;;;;;1.55;0.70;;;;;;;18.47;41.37;101295.06;5400070;26;20650;-69
2024/04/19 01:13:42;;;;;;;2.17;0.90;;;;;;;18.47;41.33;101297.69;5398464;26;20345;-67
2024/04/19 01:16:08;;;;;;;3.85;1.10;;;;;;;18.58;41.38;101307.44;5398157;26;20708;-67
2024/04/19 01:18:33;;;;;;;2.42;0.80;;;;;;;18.49;41.30;101289.66;5396753;26;20036;-67
2024/04/19 01:20:59;;;;;;;1.80;0.90;;;;;;;18.46;41.63;101277.53;5399831;26;20006;-67
2024/04/19 01:23:26;;;;;;;3.22;1.05;;;;;;;18.55;41.30;101288.34;5398236;26;20419;-68
2024/04/19 01:25:53;;;;;;;2.22;0.75;;;;;;;18.55;41.41;101291.84;5398510;26;20002;-68
2024/04/19 01:28:18;;;;;;;1.30;0.60;;;;;;;18.51;41.24;101281.63;5398410;26;20002;-68
2024/04/19 01:30:44;;;;;;;2.22;0.68;;;;;;;18.44;41.54;101271.53;5399682;26;19995;-69
2024/04/19 01:33:11;;;;;;;1.60;0.70;;;;;;;18.45;41.47;101265.31;5399585;26;20003;-68
2024/04/19 01:35:36;;;;;;;2.13;0.95;;;;;;;18.37;41.25;101243.91;5399836;26;19988;-70
2024/04/19 01:38:02;;;;;;;2.25;0.80;;;;;;;18.42;41.47;101252.34;5398892;26;20055;-68
2024/04/19 01:40:28;;;;;;;2.25;0.77;;;;;;;18.38;41.44;101235.03;5399812;26;21274;-66
2024/04/19 01:42:53;;;;;;;2.42;0.82;;;;;;;18.44;41.39;101242.50;5399424;26;19996;-68
2024/04/19 01:45:18;;;;;;;3.25;0.80;;;;;;;18.49;41.53;101245.63;5399246;26;20032;-68
2024/04/19 01:47:45;;;;;;;2.58;0.80;;;;;;;18.45;41.21;101235.41;5398026;26;19992;-68
2024/04/19 01:50:10;;;;;;;2.03;0.88;;;;;;;18.38;41.47;101232.41;5399826;26;20031;-68
2024/04/19 01:52:35;;;;;;;2.35;0.88;;;;;;;18.44;41.58;101220.56;5398732;26;19992;-67
2024/04/19 01:55:01;;;;;;;3.33;1.00;;;;;;;18.39;41.64;101212.13;5398801;26;19991;-67
2024/04/19 01:57:27;;;;;;;3.13;0.90;;;;;;;18.43;41.66;101206.50;5399438;26;19996;-68
2024/04/19 01:59:52;;;;;;;2.85;0.90;;;;;;;18.37;41.45;101191.13;5398842;26;19999;-69
2024/04/19 02:02:18;;;;;;;2.38;0.98;;;;;;;18.47;41.38;101215.03;5398267;26;20008;-68
2024/04/19 02:04:46;;;;;;;2.85;0.90;;;;;;;18.43;41.68;101189.84;5399263;26;19996;-69
2024/04/19 02:07:12;;;;;;;1.77;0.90;;;;;;;18.36;41.59;101172.78;5399087;26;20414;-67
2024/04/19 02:09:37;;;;;;;2.22;0.90;;;;;;;18.41;41.63;101189.13;5399699;26;20011;-68
2024/04/19 02:12:03;;;;;;;3.00;1.00;;;;;;;18.44;41.50;101189.72;5397651;26;20042;-68
2024/04/19 02:14:30;;;;;;;2.05;0.75;;;;;;;18.40;41.83;101179.50;5398657;26;20011;-69
2024/04/19 02:16:57;;;;;;;1.95;0.70;;;;;;;18.36;41.68;101168.38;5398809;26;19995;-68
2024/04/19 02:19:23;;;;;;;1.73;0.80;;;;;;;18.31;41.67;101157.34;5399161;26;20012;-70
2024/04/19 02:21:48;;;;;;;2.40;0.68;;;;;;;18.38;41.71;101163.81;5396735;26;19999;-66
2024/04/19 02:24:14;;;;;;;1.75;0.90;;;;;;;18.38;41.69;101161.16;5399504;26;20010;-66
2024/04/19 02:26:40;;;;;;;2.35;1.00;;;;;;;18.28;41.70;101136.47;5397783;26;19995;-66
2024/04/19 02:31:49;;;;;;;2.28;0.80;;;;;;;18.36;41.78;101141.97;5399561;26;20037;-67
2024/04/19 02:34:15;;;;;;;2.15;0.82;;;;;;;18.34;41.66;101141.25;5398099;26;20032;-70
2024/04/19 02:36:40;;;;;;;2.70;0.90;;;;;;;18.36;41.75;101131.44;5397994;26;19995;-68
2024/04/19 02:39:05;;;;;;;3.38;1.13;;;;;;;18.28;41.80;101112.72;5398412;26;20003;-68
2024/04/19 02:41:31;;;;;;;2.83;0.90;;;;;;;18.38;41.52;101126.84;5398683;26;19991;-70
2024/04/19 02:43:56;;;;;;;3.35;0.95;;;;;;;18.30;41.74;101111.63;5399295;26;19995;-69
2024/04/19 02:46:21;;;;;;;2.17;0.90;;;;;;;18.28;41.71;101099.53;5399192;26;20064;-70
2024/04/19 02:48:49;;;;;;;1.83;0.80;;;;;;;18.25;41.61;101095.31;5397700;26;20059;-69
2024/04/19 02:51:17;;;;;;;2.10;0.90;;;;;;;18.35;41.92;101105.16;5399145;26;19992;-69
2024/04/19 02:53:43;;;;;;;1.90;0.90;;;;;;;18.26;42.00;101091.72;5398145;26;20396;-69
2024/04/19 02:56:08;;;;;;;2.78;1.00;;;;;;;18.24;41.78;101084.88;5398516;26;20510;-68
2024/04/19 02:58:34;;;;;;;2.20;0.80;;;;;;;18.16;41.78;101061.72;5398476;26;20085;-67
2024/04/19 03:00:59;;;;;;;2.20;1.00;;;;;;;18.23;41.99;101075.28;5398412;26;20429;-67
2024/04/19 03:03:25;;;;;;;3.03;0.98;;;;;;;18.14;41.72;101047.84;5396587;26;20003;-67
2024/04/19 03:05:54;;;;;;;2.78;0.98;;;;;;;18.33;41.82;101078.88;5396912;26;19995;-67
2024/04/19 03:08:19;;;;;;;1.73;0.77;;;;;;;18.32;41.83;101069.28;5398742;26;20018;-68
2024/04/19 03:10:45;;;;;;;2.05;0.88;;;;;;;18.26;41.84;101061.84;5397257;26;19996;-68
2024/04/19 03:13:11;;;;;;;2.20;0.75;;;;;;;18.23;41.92;101055.03;5399106;26;20407;-67
2024/04/19 03:15:39;;;;;;;3.30;0.90;;;;;;;18.36;41.47;101072.50;5398703;26;20105;-67
2024/04/19 03:18:05;;;;;;;2.92;0.90;;;;;;;18.34;41.93;101070.03;5397452;26;19999;-67
2024/04/19 03:20:31;;;;;;;1.13;0.70;;;;;;;18.23;41.60;101046.25;5398674;26;19995;-67
2024/04/19 03:22:56;;;;;;;2.47;0.77;;;;;;;18.34;41.93;101063.88;5398033;26;20003;-67
2024/04/19 03:25:22;;;;;;;3.17;0.90;;;;;;;18.22;41.90;101037.50;5398402;26;19995;-67
2024/04/19 03:27:51;;;;;;;2.10;0.73;;;;;;;18.34;41.83;101045.41;5396575;26;20006;-67
2024/04/19 03:30:42;;;;;;;2.65;0.80;;;;;;;18.22;42.09;101021.69;5396488;26;20026;-67
2024/04/19 03:33:08;;;;;;;1.85;0.77;;;;;;;18.26;42.05;101033.69;5395619;26;19996;-68
2024/04/19 03:35:40;;;;;;;2.28;1.00;;;;;;;18.24;41.98;101017.13;5398309;26;20003;-69
2024/04/19 03:38:05;;;;;;;4.10;0.90;;;;;;;18.19;42.03;101010.53;5397468;26;20003;-67
2024/04/19 03:40:30;;;;;;;1.98;0.80;;;;;;;18.20;42.11;101010.44;5398529;26;20006;-67
2024/04/19 03:42:58;;;;;;;1.40;0.80;;;;;;;18.17;42.00;101001.94;5397795;26;20006;-67
2024/04/19 03:45:43;;;;;;;2.13;0.93;;;;;;;18.19;42.03;100998.19;5396874;26;20420;-69
2024/04/19 03:48:09;;;;;;;1.85;0.85;;;;;;;18.20;42.12;100988.47;5398206;26;20006;-67
2024/04/19 03:50:34;;;;;;;2.40;0.80;;;;;;;18.27;41.89;101011.59;5397889;26;19992;-69
2024/04/19 03:53:00;;;;;;;2.00;0.90;;;;;;;18.24;41.95;101000.47;5397299;26;20023;-67
2024/04/19 03:55:25;;;;;;;2.40;0.73;;;;;;;18.25;42.25;100999.50;5397534;26;20044;-67
2024/04/19 03:57:50;;;;;;;1.98;0.82;;;;;;;18.24;42.16;100984.63;5456134;26;20006;-68
2024/04/19 04:00:16;;;;;;;2.10;0.90;;;;;;;18.22;42.25;100982.13;5395427;26;20019;-69
2024/04/19 04:02:41;;;;;;;2.50;0.80;;;;;;;18.15;42.04;100974.81;5396543;26;20011;-71
2024/04/19 04:05:06;;;;;;;2.05;0.82;;;;;;;18.18;42.23;100964.84;5397576;26;19995;-68
2024/04/19 04:07:32;;;;;;;1.85;0.70;;;;;;;18.10;42.27;100949.66;5397344;26;20005;-70
2024/04/19 04:09:57;;;;;;;1.30;0.80;;;;;;;18.22;42.21;100965.47;5397185;26;20502;-68
2024/04/19 04:12:23;;;;;;;2.45;0.93;;;;;;;18.14;42.13;100950.25;5397686;26;19996;-69
2024/04/19 04:14:48;;;;;;;2.78;1.02;;;;;;;18.13;42.26;100948.56;5395095;26;20041;-68
2024/04/19 04:17:13;;;;;;;2.95;0.85;;;;;;;18.18;42.25;100945.56;5396106;26;21443;-69
2024/04/19 04:19:38;;;;;;;1.60;0.90;;;;;;;18.23;41.82;100941.59;5396707;26;20041;-68
2024/04/19 04:22:04;;;;;;;2.05;1.00;;;;;;;18.14;42.04;100921.22;5455790;26;19995;-68
2024/04/19 04:24:29;;;;;;;2.13;0.88;;;;;;;18.16;42.18;100916.66;5397426;26;20012;-69
2024/04/19 04:26:55;;;;;;;1.77;0.90;;;;;;;18.23;42.34;100932.81;5396571;26;20428;-69
2024/04/19 04:29:20;;;;;;;2.20;1.00;;;;;;;18.08;42.43;100919.06;5396148;26;20010;-70
2024/04/19 04:31:45;;;;;;;3.00;1.05;;;;;;;18.22;42.27;100941.72;5395316;26;20349;-68
2024/04/19 04:34:11;;;;;;;2.25;0.85;;;;;;;18.19;42.09;100926.13;5396331;26;19996;-69
2024/04/19 04:36:37;;;;;;;1.42;0.70;;;;;;;18.22;42.46;100939.09;5397119;26;20065;-68
2024/04/19 04:39:02;;;;;;;2.20;0.90;;;;;;;18.18;42.31;100927.91;5395714;26;20513;-69
2024/04/19 04:41:28;;;;;;;1.95;0.90;;;;;;;18.22;42.37;100933.81;5398327;26;20006;-71
2024/04/19 04:43:53;;;;;;;1.95;0.90;;;;;;;18.20;42.50;100928.66;5400326;26;20363;-67
2024/04/19 04:46:18;;;;;;;2.03;1.00;;;;;;;18.16;42.39;100926.38;5400905;26;21128;-70
2024/04/19 04:48:43;;;;;;;2.03;0.80;;;;;;;18.00;42.34;100897.75;5399169;26;20052;-69
2024/04/19 04:51:09;;;;;;;1.58;0.90;;;;;;;18.17;42.38;100909.59;5399966;26;20002;-69
2024/04/19 04:53:34;;;;;;;1.90;0.90;;;;;;;18.10;42.55;100907.44;5400661;26;20353;-68
2024/04/19 04:55:59;;;;;;;1.85;0.90;;;;;;;18.16;42.42;100921.09;5399193;26;20915;-70
2024/04/19 04:58:24;;;;;;;2.10;0.85;;;;;;;18.09;42.51;100899.66;5400596;26;20008;-68
2024/04/19 05:00:51;;;;;;;2.50;1.00;;;;;;;18.21;42.78;100913.66;5399966;26;20487;-70
2024/04/19 05:03:16;;;;;;;1.63;0.90;;;;;;;18.19;42.29;100902.41;5398056;26;19995;-68
2024/04/19 05:05:41;;;;;;;2.72;1.10;;;;;;;18.05;42.43;100891.13;5399922;26;20530;-70
2024/04/19 05:08:07;;;;;;;3.13;0.93;;;;;;;18.14;42.53;100894.84;5400498;26;19992;-69
2024/04/19 05:10:32;;;;;;;1.38;0.88;;;;;;;18.06;42.26;100877.00;5396282;26;20992;-69
2024/04/19 05:12:57;;;;;;;1.42;0.80;;;;;;;18.17;42.62;100888.50;5399933;26;20072;-68
2024/04/19 05:15:23;;;;;;;1.85;0.88;;;;;;;18.12;42.40;100880.97;5397154;26;21036;-67
2024/04/19 05:17:49;;;;;;;1.85;0.90;;;;;;;18.19;42.40;100899.75;5399375;26;19996;-70
2024/04/19 05:20:14;;;;;;;1.65;0.73;;;;;;;18.04;42.66;100871.03;5398466;26;19999;-67
2024/04/19 05:22:39;;;;;;;2.17;0.73;;;;;;;18.25;42.49;100900.09;5398768;26;20094;-68
2024/04/19 05:25:07;;;;;;;1.45;0.70;;;;;;;18.17;42.58;100872.69;5397784;26;20004;-67
2024/04/19 05:27:32;;;;;;;0.85;0.60;;;;;;;18.25;42.60;100886.91;5399690;26;20825;-70
2024/04/19 05:29:57;;;;;;;1.58;0.70;;;;;;;18.28;42.78;100891.94;5399188;26;19992;-69
2024/04/19 05:32:23;;;;;;;0.98;0.70;;;;;;;18.29;42.50;100876.94;5399861;26;19999;-69
2024/04/19 05:34:48;;;;;;;1.25;0.70;;;;;;;18.24;42.79;100860.66;5398904;26;20009;-67
2024/04/19 05:37:13;;;;;;;1.33;0.70;;;;;;;18.24;42.84;100869.38;5398058;26;20007;-68
2024/04/19 05:39:38;;;;;;;1.33;0.65;;;;;;;18.35;42.59;100879.06;5400146;26;20461;-68
2024/04/19 05:42:04;;;;;;;1.40;0.60;;;;;;;18.29;42.86;100847.91;5399559;26;20083;-69
2024/04/19 05:44:31;;;;;;;1.38;0.60;;;;;;;18.43;42.66;100883.72;5397032;26;19999;-68
2024/04/19 05:47:00;;;;;;;1.42;0.70;;;;;;;18.43;42.92;100874.00;5399652;26;20845;-67
2024/04/19 05:49:28;;;;;;;1.35;0.57;;;;;;;18.45;43.06;100880.00;5398081;26;20535;-70
2024/04/19 05:51:53;;;;;;;1.23;0.68;;;;;;;18.30;42.89;100841.69;5397800;26;20019;-67
2024/04/19 05:54:19;;;;;;;1.35;0.60;;;;;;;18.43;42.97;100852.06;5397434;26;20340;-69
2024/04/19 05:56:44;;;;;;;1.27;0.70;;;;;;;18.51;42.72;100862.81;5399545;26;19991;-67
2024/04/19 05:59:10;;;;;;;1.77;0.63;;;;;;;18.56;42.93;100879.09;5398986;26;20032;-68
2024/04/19 06:01:35;;;;;;;0.95;0.60;;;;;;;18.45;42.50;100860.69;5397844;26;20464;-69
2024/04/19 06:04:00;;;;;;;0.90;0.50;;;;;;;18.48;43.03;100860.44;5398390;26;20418;-67
2024/04/19 06:06:26;;;;;;;1.30;0.60;;;;;;;18.46;42.80;100857.91;5397803;26;19999;-68
2024/04/19 06:08:51;;;;;;;1.60;0.68;;;;;;;18.49;42.67;100849.75;5399100;26;20638;-68
2024/04/19 06:11:17;;;;;;;1.75;0.70;;;;;;;18.58;42.71;100871.06;5384262;26;20010;-69
2024/04/19 06:13:44;;;;;;;1.05;0.60;;;;;;;18.58;42.96;100866.66;5374518;26;20089;-69
2024/04/19 06:16:10;;;;;;;0.75;0.50;;;;;;;18.52;43.01;100853.09;5376844;26;19996;-67
2024/04/19 06:18:36;;;;;;;2.00;0.63;;;;;;;18.53;43.08;100858.25;5377207;26;20357;-67
2024/04/19 06:21:02;;;;;;;0.93;0.50;;;;;;;18.53;42.89;100852.13;5377137;26;20492;-68
2024/04/19 06:23:27;;;;;;;1.23;0.50;;;;;;;18.57;42.90;100853.56;5395119;26;20035;-68
2024/04/19 06:25:55;;;;;;;1.05;0.60;;;;;;;18.50;42.76;100840.06;5393959;26;20407;-68
2024/04/19 06:28:21;;;;;;;0.75;0.52;;;;;;;18.54;43.19;100845.91;5396735;26;20337;-69
2024/04/19 06:30:46;;;;;;;2.35;0.80;;;;;;;18.62;43.08;100864.56;5397834;26;20003;-68
2024/04/19 06:33:11;;;;;;;2.05;0.75;;;;;;;18.60;43.18;100854.16;5399232;26;20011;-68
2024/04/19 06:35:37;;;;;;;1.50;0.60;;;;;;;18.63;43.09;100855.72;5398312;26;19995;-70
2024/04/19 06:38:02;;;;;;;2.67;0.80;;;;;;;18.49;43.01;100836.56;5398548;26;19995;-68
2024/04/19 06:40:27;;;;;;;1.23;0.60;;;;;;;18.63;43.32;100851.25;5396993;26;21677;-69
2024/04/19 06:42:53;;;;;;;1.40;0.63;;;;;;;18.64;43.55;100841.53;5398946;26;20414;-68
2024/04/19 06:45:18;;;;;;;1.70;0.70;;;;;;;18.64;43.48;100837.09;5398358;26;19999;-69
2024/04/19 06:47:43;;;;;;;1.10;0.60;;;;;;;18.61;43.81;100828.56;5456181;26;20008;-69
2024/04/19 06:50:09;;;;;;;1.85;0.70;;;;;;;18.67;44.09;100839.50;5398615;26;19995;-69
2024/04/19 06:52:34;;;;;;;1.15;0.50;;;;;;;18.58;44.20;100818.28;5396633;26;20004;-67
2024/04/19 06:54:59;;;;;;;2.85;0.85;;;;;;;18.67;44.05;100834.22;5397887;26;19995;-68
2024/04/19 06:57:25;;;;;;;1.77;0.70;;;;;;;18.60;44.21;100803.16;5395707;26;20011;-68
2024/04/19 06:59:50;;;;;;;2.85;0.73;;;;;;;18.68;44.05;100827.13;5398219;26;20000;-68
2024/04/19 07:02:16;;;;;;;1.10;0.52;;;;;;;18.56;44.36;100793.81;5396300;26;20662;-67
2024/04/19 07:04:41;;;;;;;3.25;0.80;;;;;;;18.56;44.11;100791.19;5397962;26;20489;-68
2024/04/19 07:07:07;;;;;;;2.72;0.73;;;;;;;18.71;44.66;100812.81;5398963;26;20461;-67
2024/04/19 07:09:32;;;;;;;0.98;0.65;;;;;;;18.66;44.65;100800.84;5397507;26;20060;-67
2024/04/19 07:11:58;;;;;;;1.40;0.52;;;;;;;18.72;44.84;100806.56;5398890;26;19995;-67
2024/04/19 07:14:23;;;;;;;2.78;0.60;;;;;;;18.73;44.71;100797.69;5395474;26;20012;-68
2024/04/19 07:16:49;;;;;;;1.17;0.52;;;;;;;18.72;44.69;100803.94;5397755;26;20000;-67
2024/04/19 07:19:14;;;;;;;2.00;0.70;;;;;;;18.70;44.64;100809.34;5396114;26;20243;-68
2024/04/19 07:21:39;;;;;;;2.17;0.77;;;;;;;18.64;44.99;100788.72;5397333;26;19999;-67
2024/04/19 07:24:05;;;;;;;3.85;0.73;;;;;;;18.61;44.73;100781.06;5396893;26;20010;-67
2024/04/19 07:26:34;;;;;;;2.00;0.60;;;;;;;18.69;45.11;100791.81;5396911;26;20045;-69
2024/04/19 07:28:59;;;;;;;3.03;0.80;;;;;;;18.76;45.00;100798.25;5397739;26;20000;-67
2024/04/19 07:31:25;;;;;;;2.85;0.82;;;;;;;18.65;45.14;100778.03;5396907;26;20342;-68
2024/04/19 07:33:50;;;;;;;2.28;1.02;;;;;;;18.67;45.33;100778.78;5397883;26;20011;-67
2024/04/19 07:36:15;;;;;;;3.45;0.82;;;;;;;18.77;45.09;100799.09;5398082;26;20438;-66
2024/04/19 07:38:43;;;;;;;3.08;0.70;;;;;;;18.66;45.08;100774.44;5397831;26;20006;-68
2024/04/19 07:41:09;;;;;;;1.90;0.73;;;;;;;18.70;44.86;100777.66;5396614;26;20047;-69
2024/04/19 07:43:34;;;;;;;2.42;0.70;;;;;;;18.73;45.18;100780.03;5397117;26;20122;-69
2024/04/19 07:46:00;;;;;;;3.60;1.05;;;;;;;18.66;45.14;100774.44;5395143;26;20029;-68
2024/04/19 07:48:26;;;;;;;2.05;0.70;;;;;;;18.67;45.41;100759.44;5397464;26;20008;-69
2024/04/19 07:50:51;;;;;;;2.63;0.70;;;;;;;18.70;45.25;100761.00;5397319;26;20006;-68
2024/04/19 07:53:19;;;;;;;1.40;0.60;;;;;;;18.78;45.75;100780.47;5393328;26;20003;-74
2024/04/19 07:55:45;;;;;;;2.08;0.60;;;;;;;18.74;45.59;100759.75;5388856;26;19995;-72
2024/04/19 07:58:10;;;;;;;3.40;0.90;;;;;;;18.82;45.75;100784.53;5395181;26;20023;-73
2024/04/19 08:00:36;;;;;;;4.43;0.80;;;;;;;18.76;45.79;100763.94;5397456;26;20048;-72
2024/04/19 08:03:02;;;;;;;1.67;0.68;;;;;;;18.81;45.81;100763.56;5392093;26;20007;-70
2024/04/19 08:05:28;;;;;;;2.58;0.80;;;;;;;18.83;45.92;100769.53;5394665;26;20394;-70
2024/04/19 08:07:54;;;;;;;1.77;0.70;;;;;;;18.79;45.98;100749.66;5392133;26;20011;-71
2024/04/19 08:10:20;;;;;;;3.13;0.82;;;;;;;18.90;45.82;100768.09;5395599;26;20453;-72
2024/04/19 08:12:46;;;;;;;1.73;0.70;;;;;;;18.81;46.01;100750.34;5395224;26;19996;-72
2024/04/19 08:15:11;;;;;;;3.58;1.02;;;;;;;18.82;45.88;100750.22;5395820;26;20456;-70
2024/04/19 08:17:38;;;;;;;1.63;0.70;;;;;;;18.83;46.10;100741.34;5399448;26;20035;-70
2024/04/19 08:20:04;;;;;;;2.50;0.93;;;;;;;18.82;45.93;100737.03;5398651;26;19996;-68
2024/04/19 08:22:30;;;;;;;3.78;0.90;;;;;;;18.84;45.85;100742.19;5399681;26;20259;-69
2024/04/19 08:24:55;;;;;;;4.15;0.90;;;;;;;18.97;45.57;100765.75;5399199;26;20500;-70
2024/04/19 08:27:20;;;;;;;5.25;1.13;;;;;;;18.91;46.14;100768.91;5397799;26;19999;-69
2024/04/19 08:29:45;;;;;;;2.63;0.90;;;;;;;18.79;45.94;100728.53;5399910;26;20024;-70
2024/04/19 08:32:11;;;;;;;3.60;0.82;;;;;;;19.00;45.81;100760.19;5395882;26;20457;-69
2024/04/19 08:34:36;;;;;;;6.97;1.10;;;;;;;18.98;46.06;100749.78;5398876;26;20003;-72
2024/04/19 08:37:02;;;;;;;2.53;0.93;;;;;;;18.93;45.81;100741.41;5399773;26;20040;-70
2024/04/19 08:39:27;;;;;;;2.03;0.90;;;;;;;18.98;45.96;100748.94;5399716;26;20437;-70
2024/04/19 08:41:58;;;;;;;2.88;0.90;;;;;;;18.96;45.90;100745.56;5397545;26;20004;-72
2024/04/19 08:44:24;;;;;;;3.97;1.05;;;;;;;18.90;46.08;100739.03;5399145;26;20012;-71
2024/04/19 08:46:53;;;;;;;3.83;0.85;;;;;;;19.01;46.30;100765.34;5398578;26;20068;-71
2024/04/19 08:49:20;;;;;;;3.00;0.80;;;;;;;19.02;46.15;100755.63;5398728;26;20070;-70
2024/04/19 08:51:45;;;;;;;4.00;1.10;;;;;;;19.02;46.25;100753.78;5398395;26;20060;-69
2024/04/19 08:54:12;;;;;;;1.42;0.60;;;;;;;19.04;45.89;100758.94;5397696;26;20447;-70
2024/04/19 08:56:38;;;;;;;4.20;0.93;;;;;;;19.03;45.83;100747.56;5399004;26;20031;-69
2024/04/19 08:59:04;;;;;;;2.63;1.10;;;;;;;18.97;46.12;100737.53;5399780;26;20007;-70
2024/04/19 09:01:30;;;;;;;2.78;0.80;;;;;;;19.02;46.23;100747.69;5396528;26;20463;-71
2024/04/19 09:03:55;;;;;;;1.85;0.85;;;;;;;19.03;46.30;100744.91;5398602;26;19999;-70
2024/04/19 09:06:24;;;;;;;2.08;0.77;;;;;;;18.99;46.45;100738.25;5399785;26;19999;-72
2024/04/19 09:08:50;;;;;;;2.35;0.90;;;;;;;19.02;46.30;100747.69;5399141;26;20475;-72
2024/04/19 09:11:15;;;;;;;3.20;0.80;;;;;;;19.03;46.37;100754.66;5400338;26;19996;-70
2024/04/19 09:13:42;;;;;;;3.10;0.85;;;;;;;19.05;46.16;100752.72;5400734;26;20410;-70
2024/04/19 09:16:08;;;;;;;3.22;0.82;;;;;;;18.99;46.37;100740.88;5399502;26;19995;-70
2024/04/19 09:18:34;;;;;;;3.88;1.13;;;;;;;19.06;46.55;100745.59;5399620;26;19996;-70
2024/04/19 09:20:59;;;;;;;2.50;0.80;;;;;;;19.06;46.29;100746.47;5400358;26;20007;-72
2024/04/19 09:23:25;;;;;;;2.60;1.00;;;;;;;18.90;46.47;100723.19;5399271;26;20031;-72
2024/04/19 09:25:59;;;;;;;1.83;0.70;;;;;;;18.99;46.47;100735.59;5399843;26;20826;-69
2024/04/19 09:28:27;;;;;;;2.60;0.80;;;;;;;18.96;46.33;100737.66;5397765;26;19991;-68
2024/04/19 09:30:52;;;;;;;2.13;0.70;;;;;;;18.92;46.11;100725.69;5397819;26;19999;-71
2024/04/19 09:33:18;;;;;;;2.20;0.70;;;;;;;18.96;46.34;100732.38;5399750;26;20041;-72
2024/04/19 09:35:44;;;;;;;3.05;0.90;;;;;;;19.05;46.45;100754.53;5398462;26;20046;-71
2024/04/19 09:38:14;;;;;;;5.32;1.20;;;;;;;18.96;46.40;100735.00;5398992;26;20002;-71
2024/04/19 09:40:44;;;;;;;3.13;0.80;;;;;;;19.07;46.68;100744.66;5399147;26;20054;-68
2024/04/19 09:43:13;;;;;;;2.60;0.95;;;;;;;19.06;46.44;100754.41;5399602;26;20011;-70
2024/04/19 09:45:43;;;;;;;2.83;0.73;;;;;;;19.04;46.57;100753.66;5399353;26;19995;-70
2024/04/19 09:48:14;;;;;;;4.32;0.85;;;;;;;19.02;46.25;100743.22;5400902;26;20073;-71
2024/04/19 09:50:47;;;;;;;3.67;0.70;;;;;;;19.04;46.11;100745.75;5397863;26;20000;-71
2024/04/19 09:53:28;;;;;;;3.25;0.70;;;;;;;18.95;46.30;100730.72;5398808;26;19996;-71
2024/04/19 09:56:12;;;;;;;3.25;0.75;;;;;;;19.07;46.09;100753.41;5395293;26;20011;-73
2024/04/19 09:58:38;;;;;;;2.25;0.70;;;;;;;19.06;46.02;100748.25;5398436;26;20007;-73
2024/04/19 10:01:04;;;;;;;1.98;0.70;;;;;;;19.06;46.13;100751.75;5396831;26;20039;-72
2024/04/19 10:03:30;;;;;;;2.92;0.80;;;;;;;18.91;46.25;100721.38;5397619;26;19991;-68
2024/04/19 10:05:56;;;;;;;4.45;1.02;;;;;;;19.06;46.27;100740.31;5398427;26;20060;-71
2024/04/19 10:08:27;;;;;;;2.88;0.73;;;;;;;19.04;46.38;100735.19;5399221;26;20011;-71
2024/04/19 10:10:54;;;;;;;2.35;0.80;;;;;;;19.09;46.18;100751.50;5398627;26;20484;-72
2024/04/19 10:13:21;;;;;;;2.63;0.77;;;;;;;19.01;46.11;100731.03;5398543;26;20007;-73
2024/04/19 10:15:47;;;;;;;2.45;0.70;;;;;;;19.05;46.57;100741.31;5398640;26;21260;-72
2024/04/19 10:18:12;;;;;;;4.07;0.95;;;;;;;19.07;46.57;100742.84;5398036;26;20540;-70
2024/04/19 10:20:40;;;;;;;3.15;0.93;;;;;;;18.96;46.64;100727.09;5397784;26;20738;-70
2024/04/19 10:23:05;;;;;;;2.63;0.80;;;;;;;18.96;46.38;100721.81;5398273;26;20006;-71
2024/04/19 10:25:36;;;;;;;2.00;0.70;;;;;;;18.97;46.53;100723.50;5395649;26;20000;-71
2024/04/19 10:28:01;;;;;;;4.72;1.08;;;;;;;19.00;46.82;100724.06;5398610;26;19999;-71
2024/04/19 10:30:31;;;;;;;1.65;0.57;;;;;;;19.09;46.62;100730.34;5397909;26;20006;-71
2024/04/19 10:32:59;;;;;;;3.45;0.90;;;;;;;18.99;46.53;100717.13;5397823;26;19999;-70
2024/04/19 10:35:24;;;;;;;3.35;0.80;;;;;;;19.05;46.51;100728.94;5394619;26;20322;-69
2024/04/19 10:37:50;;;;;;;1.80;0.70;;;;;;;19.09;46.92;100742.72;5397513;26;20445;-69
2024/04/19 10:40:16;;;;;;;2.55;0.90;;;;;;;19.05;46.58;100736.03;5396441;26;20072;-73
2024/04/19 10:42:41;;;;;;;3.70;0.75;;;;;;;19.02;46.65;100706.25;5397547;26;20206;-73
2024/04/19 10:45:14;;;;;;;4.18;1.00;;;;;;;19.12;47.06;100729.22;5399600;26;20897;-69
2024/04/19 10:47:43;;;;;;;2.78;0.60;;;;;;;18.88;46.55;100690.78;5399250;26;20008;-67
2024/04/19 10:50:08;;;;;;;4.43;0.90;;;;;;;18.96;46.65;100696.25;5399234;26;20037;-68
2024/04/19 10:52:34;;;;;;;3.95;0.90;;;;;;;18.96;46.75;100698.91;5395924;26;20763;-72
2024/04/19 10:55:02;;;;;;;3.00;0.80;;;;;;;18.95;46.82;100704.31;5396277;26;20041;-69
2024/04/19 10:57:29;;;;;;;1.52;0.63;;;;;;;19.06;46.97;100719.19;5394222;26;20011;-71
2024/04/19 10:59:55;;;;;;;2.97;0.70;;;;;;;19.01;46.88;100725.72;5395791;26;20003;-72
2024/04/19 11:02:22;;;;;;;4.45;1.42;;;;;;;19.05;46.98;100721.00;5393845;26;20000;-71
2024/04/19 11:04:48;;;;;;;2.13;0.80;;;;;;;19.05;47.21;100714.91;5395741;26;19999;-72
2024/04/19 11:07:14;;;;;;;4.50;1.00;;;;;;;19.10;46.92;100739.09;5395051;26;20515;-70
2024/04/19 11:09:39;;;;;;;2.15;0.80;;;;;;;18.91;46.60;100705.53;5395813;26;20116;-69
2024/04/19 11:12:05;;;;;;;2.65;0.82;;;;;;;19.07;46.96;100734.09;5395724;26;20010;-69
2024/04/19 11:14:30;;;;;;;3.00;1.10;;;;;;;19.05;46.82;100725.47;5393814;26;20011;-71
2024/04/19 11:16:55;;;;;;;2.95;0.82;;;;;;;19.09;46.78;100740.91;5397025;26;19995;-71
2024/04/19 11:19:22;;;;;;;2.78;0.80;;;;;;;18.97;46.63;100713.75;5395665;26;20000;-72
2024/04/19 11:21:48;;;;;;;2.67;0.90;;;;;;;19.03;46.85;100722.97;5394743;26;20045;-69